createdAt,value
2023-02-08T00:01:48.660Z,2.57
2023-02-08T00:04:15.451Z,2.60
2023-02-08T00:06:42.092Z,2.60
2023-02-08T00:09:09.009Z,2.66
2023-02-08T00:11:36.565Z,2.62
2023-02-08T00:14:03.665Z,2.54
2023-02-08T00:16:30.354Z,2.47
2023-02-08T00:18:56.920Z,2.46
2023-02-08T00:21:23.552Z,2.44
2023-02-08T00:23:50.170Z,2.46
2023-02-08T00:26:17.421Z,2.43
2023-02-08T00:28:44.704Z,2.42
2023-02-08T00:31:11.456Z,2.44
2023-02-08T00:33:38.340Z,2.33
2023-02-08T00:36:07.786Z,2.49
2023-02-08T00:38:34.884Z,2.47
2023-02-08T00:41:01.885Z,2.25
2023-02-08T00:43:28.643Z,2.31
2023-02-08T00:45:59.632Z,2.29
2023-02-08T00:48:27.631Z,2.14
2023-02-08T00:51:03.105Z,2.33
2023-02-08T00:53:30.047Z,2.38
2023-02-08T00:55:57.231Z,2.49
2023-02-08T00:58:25.504Z,2.49
2023-02-08T01:00:53.730Z,2.49
2023-02-08T01:03:22.476Z,2.50
2023-02-08T01:05:49.375Z,2.36
2023-02-08T01:08:16.475Z,2.36
2023-02-08T01:10:43.144Z,2.29
2023-02-08T01:13:09.935Z,2.26
2023-02-08T01:15:36.993Z,2.36
2023-02-08T01:18:04.341Z,2.28
2023-02-08T01:20:31.575Z,2.26
2023-02-08T01:22:58.236Z,2.19
2023-02-08T01:25:25.031Z,2.20
2023-02-08T01:27:51.693Z,2.22
2023-02-08T01:30:19.372Z,2.28
2023-02-08T01:32:46.056Z,2.30
2023-02-08T01:35:12.762Z,2.15
2023-02-08T01:37:40.882Z,2.28
2023-02-08T01:40:09.336Z,2.29
2023-02-08T01:42:36.006Z,2.17
2023-02-08T01:45:20.695Z,2.06
2023-02-08T01:47:50.505Z,2.17
2023-02-08T01:50:20.403Z,2.23
2023-02-08T01:52:47.438Z,2.26
2023-02-08T01:55:19.362Z,2.19
2023-02-08T01:57:46.540Z,2.15
2023-02-08T02:00:23.131Z,2.14
2023-02-08T02:02:53.506Z,2.20
2023-02-08T02:05:22.421Z,2.22
2023-02-08T02:07:50.947Z,2.09
2023-02-08T02:10:26.580Z,2.12
2023-02-08T02:12:56.776Z,2.13
2023-02-08T02:15:23.797Z,2.09
2023-02-08T02:17:50.505Z,2.10
2023-02-08T02:20:44.312Z,2.03
2023-02-08T02:23:33.904Z,2.07
2023-02-08T02:26:44.197Z,2.11
2023-02-08T02:29:42.126Z,2.04
2023-02-08T02:32:11.937Z,2.11
2023-02-08T02:34:50.362Z,2.12
2023-02-08T02:37:34.032Z,1.98
2023-02-08T02:40:15.201Z,1.86
2023-02-08T02:43:15.644Z,1.87
2023-02-08T02:45:56.892Z,1.79
2023-02-08T02:48:32.534Z,1.51
2023-02-08T02:51:07.288Z,1.63
2023-02-08T02:53:50.586Z,1.93
2023-02-08T02:56:29.409Z,1.72
2023-02-08T02:59:01.105Z,1.79
2023-02-08T03:01:29.869Z,1.59
2023-02-08T03:03:57.810Z,1.67
2023-02-08T03:06:43.947Z,1.79
2023-02-08T03:09:39.947Z,1.82
2023-02-08T03:12:29.579Z,1.74
2023-02-08T03:14:59.031Z,1.64
2023-02-08T03:17:37.145Z,1.68
2023-02-08T03:20:15.644Z,1.58
2023-02-08T03:22:48.823Z,1.61
2023-02-08T03:25:23.334Z,1.43
2023-02-08T03:28:01.017Z,1.45
2023-02-08T03:31:19.533Z,1.53
2023-02-08T03:33:54.167Z,1.37
2023-02-08T03:36:32.974Z,1.28
2023-02-08T03:39:04.744Z,1.43
2023-02-08T03:41:37.846Z,1.15
2023-02-08T03:44:17.393Z,1.23
2023-02-08T03:46:52.013Z,1.41
2023-02-08T03:49:23.732Z,1.46
2023-02-08T03:51:54.263Z,1.48
2023-02-08T03:54:25.657Z,1.31
2023-02-08T03:57:03.820Z,1.46
2023-02-08T03:59:39.581Z,1.32
2023-02-08T04:02:09.797Z,1.35
2023-02-08T04:04:40.044Z,1.30
2023-02-08T04:07:06.882Z,1.25
2023-02-08T04:09:34.048Z,1.16
2023-02-08T04:12:00.758Z,1.36
2023-02-08T04:14:27.388Z,1.29
2023-02-08T04:16:54.032Z,1.26
2023-02-08T04:19:20.645Z,1.22
2023-02-08T04:21:47.402Z,1.26
2023-02-08T04:24:13.973Z,1.37
2023-02-08T04:26:40.638Z,1.26
2023-02-08T04:29:07.329Z,1.32
2023-02-08T04:31:34.021Z,1.30
2023-02-08T04:34:02.688Z,1.16
2023-02-08T04:36:29.426Z,1.29
2023-02-08T04:38:56.046Z,1.32
2023-02-08T04:41:22.657Z,1.28
2023-02-08T04:43:49.289Z,1.10
2023-02-08T04:46:15.942Z,1.32
2023-02-08T04:48:42.665Z,1.28
2023-02-08T04:51:09.321Z,1.13
2023-02-08T04:53:35.983Z,1.27
2023-02-08T04:56:02.627Z,1.23
2023-02-08T04:58:29.239Z,1.34
2023-02-08T05:00:55.859Z,1.30
2023-02-08T05:03:22.604Z,1.39
2023-02-08T05:05:57.502Z,1.34
2023-02-08T05:08:24.282Z,1.11
2023-02-08T05:10:50.986Z,0.99
2023-02-08T05:13:17.684Z,1.04
2023-02-08T05:15:44.351Z,1.02
2023-02-08T05:18:11.027Z,0.88
2023-02-08T05:20:37.751Z,0.74
2023-02-08T05:23:05.963Z,1.02
2023-02-08T05:25:32.723Z,1.10
2023-02-08T05:28:00.284Z,0.95
2023-02-08T05:30:27.025Z,0.89
2023-02-08T05:32:53.650Z,1.03
2023-02-08T05:35:20.410Z,0.99
2023-02-08T05:37:46.949Z,1.16
2023-02-08T05:40:13.579Z,1.10
2023-02-08T05:42:42.386Z,0.74
2023-02-08T05:45:09.316Z,0.76
2023-02-08T05:47:36.696Z,0.91
2023-02-08T05:50:03.469Z,1.04
2023-02-08T05:52:30.450Z,0.88
2023-02-08T05:54:57.194Z,0.76
2023-02-08T05:57:23.782Z,0.90
2023-02-08T05:59:50.434Z,0.79
2023-02-08T06:02:17.034Z,0.69
2023-02-08T06:04:43.609Z,0.52
2023-02-08T06:07:10.192Z,0.61
2023-02-08T06:09:36.779Z,0.76
2023-02-08T06:12:03.755Z,0.97
2023-02-08T06:14:30.347Z,0.85
2023-02-08T06:16:57.830Z,0.94
2023-02-08T06:19:24.498Z,0.90
2023-02-08T06:21:51.177Z,0.87
2023-02-08T06:24:17.995Z,1.03
2023-02-08T06:26:44.605Z,1.09
2023-02-08T06:29:11.329Z,0.96
2023-02-08T06:31:37.982Z,0.81
2023-02-08T06:34:04.670Z,0.87
2023-02-08T06:36:31.372Z,0.75
2023-02-08T06:38:58.017Z,0.75
2023-02-08T06:41:24.717Z,0.79
2023-02-08T06:43:51.378Z,0.50
2023-02-08T06:46:17.999Z,0.59
2023-02-08T06:48:44.564Z,0.71
2023-02-08T06:51:11.243Z,0.73
2023-02-08T06:53:37.840Z,0.78
2023-02-08T06:56:04.832Z,0.91
2023-02-08T06:58:31.421Z,0.80
2023-02-08T07:00:58.069Z,0.96
2023-02-08T07:03:24.811Z,0.91
2023-02-08T07:06:04.088Z,0.83
2023-02-08T07:08:34.036Z,0.82
2023-02-08T07:11:05.498Z,0.92
2023-02-08T07:13:32.070Z,1.15
2023-02-08T07:15:58.729Z,0.49
2023-02-08T07:18:25.491Z,0.84
2023-02-08T07:20:52.170Z,1.11
2023-02-08T07:23:18.768Z,1.23
2023-02-08T07:25:45.896Z,1.39
2023-02-08T07:28:12.514Z,1.48
2023-02-08T07:30:39.484Z,1.64
2023-02-08T07:33:06.248Z,1.58
2023-02-08T07:35:32.844Z,1.68
2023-02-08T07:37:59.451Z,1.89
2023-02-08T07:40:26.029Z,2.00
2023-02-08T07:42:52.738Z,1.94
2023-02-08T07:45:29.979Z,1.94
2023-02-08T07:47:57.045Z,2.08
2023-02-08T07:50:23.617Z,2.40
2023-02-08T07:52:50.260Z,2.58
2023-02-08T07:55:17.269Z,2.64
2023-02-08T07:57:44.827Z,2.72
2023-02-08T08:00:12.423Z,2.84
2023-02-08T08:02:39.444Z,2.92
2023-02-08T08:05:06.820Z,3.02
2023-02-08T08:07:33.567Z,3.10
2023-02-08T08:10:00.276Z,3.20
2023-02-08T08:12:26.867Z,3.26
2023-02-08T08:14:53.476Z,3.36
2023-02-08T08:17:20.078Z,3.47
2023-02-08T08:19:46.770Z,3.40
2023-02-08T08:22:13.702Z,3.24
2023-02-08T08:24:40.429Z,3.60
2023-02-08T08:27:07.618Z,3.75
2023-02-08T08:29:36.058Z,3.90
2023-02-08T08:32:04.220Z,4.16
2023-02-08T08:34:31.534Z,4.15
2023-02-08T08:37:02.567Z,4.01
2023-02-08T08:39:29.194Z,4.11
2023-02-08T08:42:00.816Z,4.26
2023-02-08T08:44:27.450Z,4.32
2023-02-08T08:46:55.947Z,4.53
2023-02-08T08:49:23.677Z,4.53
2023-02-08T08:51:51.048Z,4.73
2023-02-08T08:54:18.369Z,5.64
2023-02-08T08:56:45.189Z,5.33
2023-02-08T08:59:12.116Z,5.12
2023-02-08T09:01:40.025Z,4.95
2023-02-08T09:04:06.683Z,5.12
2023-02-08T09:06:33.396Z,5.05
2023-02-08T09:09:00.232Z,5.04
2023-02-08T09:11:27.018Z,5.16
2023-02-08T09:13:56.274Z,5.08
2023-02-08T09:16:24.157Z,5.02
2023-02-08T09:18:51.252Z,5.26
2023-02-08T09:21:20.314Z,5.14
2023-02-08T09:23:48.072Z,5.29
2023-02-08T09:26:17.271Z,5.17
2023-02-08T09:28:44.530Z,5.42
2023-02-08T09:31:20.226Z,5.19
2023-02-08T09:33:48.141Z,5.40
2023-02-08T09:36:15.095Z,5.33
2023-02-08T09:38:42.319Z,5.43
2023-02-08T09:41:15.128Z,5.20
2023-02-08T09:43:54.366Z,5.49
2023-02-08T09:46:24.400Z,5.58
2023-02-08T09:48:53.836Z,5.64
2023-02-08T09:51:38.249Z,5.47
2023-02-08T09:54:26.306Z,5.35
2023-02-08T09:56:53.532Z,5.57
2023-02-08T09:59:27.078Z,5.72
2023-02-08T10:01:59.147Z,5.74
2023-02-08T10:04:54.987Z,5.55
2023-02-08T10:07:21.897Z,5.84
2023-02-08T10:09:48.492Z,5.83
2023-02-08T10:12:31.034Z,5.90
2023-02-08T10:15:03.680Z,5.97
2023-02-08T10:18:08.259Z,6.13
2023-02-08T10:21:01.650Z,5.87
2023-02-08T10:24:07.540Z,6.03
2023-02-08T10:26:44.402Z,5.98
2023-02-08T10:29:32.322Z,5.86
2023-02-08T10:32:22.487Z,6.07
2023-02-08T10:35:02.198Z,6.12
2023-02-08T10:37:36.746Z,6.01
2023-02-08T10:40:16.730Z,6.16
2023-02-08T10:42:54.992Z,6.35
2023-02-08T10:45:30.900Z,6.36
2023-02-08T10:48:05.836Z,6.30
2023-02-08T10:50:38.970Z,6.35
2023-02-08T10:53:06.306Z,5.62
2023-02-08T10:55:36.632Z,6.40
2023-02-08T10:58:06.115Z,6.58
2023-02-08T11:00:39.231Z,6.35
2023-02-08T11:03:18.810Z,6.35
2023-02-08T11:05:45.722Z,6.40
2023-02-08T11:08:17.630Z,6.34
2023-02-08T11:10:56.766Z,6.45
2023-02-08T11:13:26.231Z,6.75
2023-02-08T11:15:57.497Z,6.39
2023-02-08T11:18:26.313Z,6.68
2023-02-08T11:20:58.681Z,6.68
2023-02-08T11:23:31.272Z,6.80
2023-02-08T11:26:22.535Z,6.83
2023-02-08T11:29:13.464Z,6.76
2023-02-08T11:31:57.673Z,6.63
2023-02-08T11:34:44.763Z,6.39
2023-02-08T11:37:28.357Z,6.54
2023-02-08T11:39:57.805Z,6.69
2023-02-08T11:42:27.740Z,6.87
2023-02-08T11:44:57.002Z,6.82
2023-02-08T11:47:26.704Z,6.37
2023-02-08T11:49:56.355Z,6.76
2023-02-08T11:52:25.680Z,6.64
2023-02-08T11:54:53.656Z,6.62
2023-02-08T11:57:23.520Z,6.59
2023-02-08T11:59:52.412Z,6.48
2023-02-08T12:02:30.964Z,6.58
2023-02-08T12:04:58.761Z,6.57
2023-02-08T12:07:38.012Z,6.50
2023-02-08T12:10:24.891Z,6.40
2023-02-08T12:13:00.323Z,6.09
2023-02-08T12:15:58.544Z,6.30
2023-02-08T12:18:50.378Z,6.10
2023-02-08T12:21:29.504Z,6.36
2023-02-08T12:24:28.262Z,6.54
2023-02-08T12:27:00.264Z,6.33
2023-02-08T12:29:48.093Z,6.42
2023-02-08T12:32:39.366Z,6.38
2023-02-08T12:35:43.603Z,6.39
2023-02-08T12:38:48.441Z,6.30
2023-02-08T12:41:23.430Z,6.11
2023-02-08T12:44:27.958Z,6.17
2023-02-08T12:47:30.862Z,6.14
2023-02-08T12:50:03.668Z,6.37
2023-02-08T12:52:36.806Z,6.12
2023-02-08T12:55:24.148Z,6.24
2023-02-08T12:57:54.172Z,6.25
2023-02-08T13:00:31.789Z,6.06
2023-02-08T13:03:13.372Z,6.12
2023-02-08T13:05:53.415Z,6.02
2023-02-08T13:08:36.047Z,6.16
2023-02-08T13:11:29.141Z,6.24
2023-02-08T13:14:01.343Z,6.26
2023-02-08T13:16:34.740Z,6.13
2023-02-08T13:19:51.107Z,5.80
2023-02-08T13:22:26.557Z,5.96
2023-02-08T13:25:06.518Z,5.99
2023-02-08T13:27:34.398Z,6.17
2023-02-08T13:30:01.510Z,5.89
2023-02-08T13:32:37.414Z,6.08
2023-02-08T13:35:16.204Z,6.19
2023-02-08T13:37:51.556Z,6.30
2023-02-08T13:40:21.852Z,6.22
2023-02-08T13:42:54.055Z,6.32
2023-02-08T13:45:26.934Z,6.30
2023-02-08T13:48:06.017Z,6.30
2023-02-08T13:50:35.329Z,6.32
2023-02-08T13:53:03.354Z,6.27
2023-02-08T13:55:36.222Z,6.48
2023-02-08T13:58:13.185Z,6.35
2023-02-08T14:00:54.902Z,6.56
2023-02-08T14:03:30.185Z,6.61
2023-02-08T14:06:18.394Z,6.80
2023-02-08T14:08:57.629Z,6.76
2023-02-08T14:11:50.236Z,6.94
2023-02-08T14:14:27.139Z,6.90
2023-02-08T14:17:10.963Z,7.06
2023-02-08T14:19:40.119Z,7.17
2023-02-08T14:22:14.291Z,7.09
2023-02-08T14:24:49.779Z,7.20
2023-02-08T14:27:25.367Z,7.02
2023-02-08T14:30:19.866Z,7.02
2023-02-08T14:32:50.063Z,7.38
2023-02-08T14:35:26.344Z,7.37
2023-02-08T14:38:24.120Z,7.39
2023-02-08T14:40:52.304Z,7.30
2023-02-08T14:43:18.928Z,7.55
2023-02-08T14:45:53.360Z,7.65
2023-02-08T14:48:32.741Z,7.72
2023-02-08T14:51:21.169Z,7.98
2023-02-08T14:54:14.239Z,8.08
2023-02-08T14:56:53.608Z,8.13
2023-02-08T14:59:25.548Z,8.38
2023-02-08T15:02:03.928Z,8.28
2023-02-08T15:04:30.953Z,8.42
2023-02-08T15:07:16.228Z,8.42
2023-02-08T15:09:44.020Z,8.29
2023-02-08T15:12:15.101Z,7.90
2023-02-08T15:14:43.255Z,7.89
2023-02-08T15:17:32.643Z,7.78
2023-02-08T15:20:00.778Z,7.56
2023-02-08T15:22:32.614Z,7.49
2023-02-08T15:25:02.276Z,7.23
2023-02-08T15:27:33.434Z,7.03
2023-02-08T15:30:00.762Z,7.07
2023-02-08T15:32:29.261Z,6.80
2023-02-08T15:35:01.873Z,6.78
2023-02-08T15:37:33.969Z,6.78
2023-02-08T15:40:01.452Z,6.71
2023-02-08T15:42:32.113Z,6.73
2023-02-08T15:45:00.555Z,6.66
2023-02-08T15:47:34.550Z,6.58
2023-02-08T15:50:03.289Z,6.62
2023-02-08T15:52:35.018Z,6.57
2023-02-08T15:55:02.105Z,6.58
2023-02-08T15:57:46.580Z,6.62
2023-02-08T16:00:18.044Z,6.69
2023-02-08T16:02:51.455Z,6.73
2023-02-08T16:05:22.215Z,6.62
2023-02-08T16:07:48.948Z,6.46
2023-02-08T16:10:27.703Z,6.34
2023-02-08T16:12:58.640Z,6.42
2023-02-08T16:15:46.898Z,6.32
2023-02-08T16:18:34.398Z,6.39
2023-02-08T16:21:04.092Z,6.43
2023-02-08T16:23:38.614Z,6.53
2023-02-08T16:26:19.892Z,6.65
2023-02-08T16:28:52.948Z,6.46
2023-02-08T16:31:24.704Z,6.53
2023-02-08T16:34:05.009Z,6.26
2023-02-08T16:36:41.480Z,6.51
2023-02-08T16:39:22.601Z,6.47
2023-02-08T16:42:15.381Z,6.32
2023-02-08T16:45:16.444Z,6.18
2023-02-08T16:47:49.983Z,6.26
2023-02-08T16:50:23.083Z,6.21
2023-02-08T16:52:54.216Z,6.06
2023-02-08T16:55:26.076Z,6.12
2023-02-08T16:57:55.205Z,6.03
2023-02-08T17:00:31.498Z,5.93
2023-02-08T17:02:59.146Z,5.78
2023-02-08T17:05:29.437Z,5.76
2023-02-08T17:07:56.867Z,5.79
2023-02-08T17:10:30.277Z,5.81
2023-02-08T17:13:13.494Z,5.85
2023-02-08T17:15:47.042Z,5.69
2023-02-08T17:18:14.407Z,5.76
2023-02-08T17:20:41.263Z,5.73
2023-02-08T17:23:08.030Z,5.76
2023-02-08T17:25:35.728Z,5.72
2023-02-08T17:28:05.805Z,5.57
2023-02-08T17:30:41.382Z,5.52
2023-02-08T17:33:10.015Z,5.59
2023-02-08T17:35:38.132Z,5.49
2023-02-08T17:38:05.742Z,5.60
2023-02-08T17:40:35.100Z,5.45
2023-02-08T17:43:02.696Z,5.39
2023-02-08T17:45:29.659Z,5.32
2023-02-08T17:48:00.024Z,5.24
2023-02-08T17:50:27.110Z,5.25
2023-02-08T17:52:54.069Z,5.30
2023-02-08T17:55:20.792Z,5.22
2023-02-08T17:57:47.688Z,5.20
2023-02-08T18:00:16.674Z,5.12
2023-02-08T18:02:48.867Z,5.35
2023-02-08T18:05:20.975Z,5.17
2023-02-08T18:07:47.778Z,5.18
2023-02-08T18:10:15.432Z,5.27
2023-02-08T18:12:42.820Z,5.12
2023-02-08T18:15:12.326Z,5.08
2023-02-08T18:17:39.728Z,5.10
2023-02-08T18:20:07.063Z,5.16
2023-02-08T18:22:34.157Z,5.18
2023-02-08T18:25:03.288Z,5.43
2023-02-08T18:27:31.075Z,5.21
2023-02-08T18:29:57.740Z,5.27
2023-02-08T18:32:25.607Z,5.22
2023-02-08T18:34:52.210Z,5.13
2023-02-08T18:37:18.847Z,5.14
2023-02-08T18:39:45.700Z,5.10
2023-02-08T18:42:12.432Z,5.16
2023-02-08T18:44:39.073Z,5.06
2023-02-08T18:47:07.424Z,5.13
2023-02-08T18:49:40.729Z,5.06
2023-02-08T18:52:13.435Z,5.13
2023-02-08T18:54:40.277Z,5.00
2023-02-08T18:57:09.736Z,4.96
2023-02-08T18:59:38.957Z,4.93
2023-02-08T19:02:07.789Z,4.84
2023-02-08T19:04:38.592Z,4.78
2023-02-08T19:07:06.770Z,5.01
2023-02-08T19:09:37.940Z,5.12
2023-02-08T19:12:05.577Z,4.92
2023-02-08T19:14:32.241Z,4.84
2023-02-08T19:16:59.385Z,4.80
2023-02-08T19:19:26.253Z,4.95
2023-02-08T19:21:52.866Z,4.93
2023-02-08T19:24:19.614Z,4.93
2023-02-08T19:26:46.863Z,4.93
2023-02-08T19:29:17.191Z,5.03
2023-02-08T19:31:44.537Z,4.84
2023-02-08T19:34:12.587Z,4.82
2023-02-08T19:36:45.036Z,4.80
2023-02-08T19:39:15.140Z,4.82
2023-02-08T19:41:42.405Z,4.47
2023-02-08T19:44:11.557Z,4.60
2023-02-08T19:46:44.027Z,4.52
2023-02-08T19:49:12.548Z,4.69
2023-02-08T19:51:39.206Z,4.57
2023-02-08T19:54:09.992Z,4.67
2023-02-08T19:56:37.175Z,4.55
2023-02-08T19:59:05.478Z,4.72
2023-02-08T20:01:34.177Z,4.66
2023-02-08T20:04:01.648Z,4.74
2023-02-08T20:06:32.912Z,4.53
2023-02-08T20:09:00.588Z,4.55
2023-02-08T20:11:30.606Z,4.47
2023-02-08T20:13:58.978Z,4.32
2023-02-08T20:16:29.355Z,4.49
2023-02-08T20:18:57.693Z,4.45
2023-02-08T20:21:24.604Z,4.43
2023-02-08T20:23:51.544Z,4.33
2023-02-08T20:26:21.936Z,4.09
2023-02-08T20:28:54.980Z,4.28
2023-02-08T20:31:24.961Z,4.01
2023-02-08T20:33:52.161Z,4.10
2023-02-08T20:36:26.084Z,3.97
2023-02-08T20:38:54.663Z,3.94
2023-02-08T20:41:23.096Z,4.03
2023-02-08T20:43:50.237Z,3.99
2023-02-08T20:46:25.931Z,3.90
2023-02-08T20:48:55.142Z,3.91
2023-02-08T20:51:23.630Z,3.99
2023-02-08T20:53:50.529Z,3.96
2023-02-08T20:56:20.325Z,3.71
2023-02-08T20:58:47.303Z,3.64
2023-02-08T21:01:16.601Z,3.73
2023-02-08T21:03:43.872Z,3.90
2023-02-08T21:06:16.423Z,3.83
2023-02-08T21:08:43.942Z,3.62
2023-02-08T21:11:11.561Z,3.85
2023-02-08T21:13:38.710Z,3.70
2023-02-08T21:16:09.611Z,3.57
2023-02-08T21:18:37.367Z,3.55
2023-02-08T21:21:08.164Z,3.64
2023-02-08T21:23:36.216Z,3.74
2023-02-08T21:26:06.171Z,3.44
2023-02-08T21:28:33.328Z,3.49
2023-02-08T21:31:03.107Z,3.24
2023-02-08T21:33:30.360Z,3.51
2023-02-08T21:36:00.613Z,3.66
2023-02-08T21:38:27.312Z,3.63
2023-02-08T21:40:54.024Z,3.60
2023-02-08T21:43:20.698Z,3.74
2023-02-08T21:45:47.670Z,3.72
2023-02-08T21:48:14.402Z,3.59
2023-02-08T21:50:59.773Z,3.53
2023-02-08T21:53:45.789Z,3.60
2023-02-08T21:56:12.441Z,3.60
2023-02-08T21:58:40.147Z,3.55
2023-02-08T22:01:06.900Z,3.41
2023-02-08T22:03:34.440Z,3.58
2023-02-08T22:06:20.241Z,3.49
2023-02-08T22:08:46.933Z,3.64
2023-02-08T22:11:14.685Z,3.72
2023-02-08T22:13:43.274Z,3.58
2023-02-08T22:16:10.644Z,3.32
2023-02-08T22:18:41.157Z,3.41
2023-02-08T22:21:08.764Z,3.30
2023-02-08T22:23:36.230Z,3.33
2023-02-08T22:26:08.210Z,3.52
2023-02-08T22:28:35.778Z,3.34
2023-02-08T22:31:03.962Z,3.40
2023-02-08T22:33:30.851Z,3.27
2023-02-08T22:35:57.527Z,3.48
2023-02-08T22:38:24.512Z,3.31
2023-02-08T22:40:51.297Z,3.38
2023-02-08T22:43:17.979Z,3.38
2023-02-08T22:45:44.612Z,2.97
2023-02-08T22:48:11.358Z,2.98
2023-02-08T22:50:38.507Z,3.33
2023-02-08T22:53:05.083Z,3.19
2023-02-08T22:55:31.845Z,3.32
2023-02-08T22:57:58.402Z,3.32
2023-02-08T23:00:25.293Z,2.87
2023-02-08T23:02:51.977Z,2.79
2023-02-08T23:05:19.991Z,3.17
2023-02-08T23:07:46.821Z,3.32
2023-02-08T23:10:13.620Z,3.26
2023-02-08T23:12:40.328Z,3.13
2023-02-08T23:15:07.092Z,3.24
2023-02-08T23:17:35.606Z,3.31
2023-02-08T23:20:02.139Z,3.42
2023-02-08T23:22:30.301Z,3.40
2023-02-08T23:24:57.024Z,3.24
2023-02-08T23:27:23.608Z,3.15
2023-02-08T23:29:50.274Z,3.16
2023-02-08T23:32:16.933Z,3.11
2023-02-08T23:34:43.578Z,3.04
2023-02-08T23:37:10.184Z,2.98
2023-02-08T23:39:36.779Z,3.25
2023-02-08T23:42:03.535Z,3.37
2023-02-08T23:44:30.203Z,3.24
2023-02-08T23:46:57.001Z,3.14
2023-02-08T23:49:23.624Z,2.90
2023-02-08T23:51:50.216Z,3.01
2023-02-08T23:54:16.798Z,2.93
2023-02-08T23:56:43.424Z,2.88
2023-02-08T23:59:10.583Z,3.02
